sensor_id;sensor_type;location;lat;lon;timestamp;pressure;altitude;pressure_sealevel;temperature;humidity
10060;BME280;5069;49.306;8.636;2023-05-07T00:02:06;100383.75;;;16.22;94.11
10060;BME280;5069;49.306;8.636;2023-05-07T00:05:08;100389.22;;;16.03;96.28
10060;BME280;5069;49.306;8.636;2023-05-07T00:08:10;100371.56;;;15.86;97.38
10060;BME280;5069;49.306;8.636;2023-05-07T00:11:12;100381.66;;;15.64;98.64
10060;BME280;5069;49.306;8.636;2023-05-07T00:14:13;100380.88;;;15.62;98.86
10060;BME280;5069;49.306;8.636;2023-05-07T00:17:15;100372.31;;;15.73;97.53
10060;BME280;5069;49.306;8.636;2023-05-07T00:20:16;100378.00;;;15.82;96.79
10060;BME280;5069;49.306;8.636;2023-05-07T00:23:18;100360.50;;;15.94;96.07
10060;BME280;5069;49.306;8.636;2023-05-07T00:26:19;100357.31;;;16.03;95.25
10060;BME280;5069;49.306;8.636;2023-05-07T00:29:23;100355.34;;;16.06;95.11
10060;BME280;5069;49.306;8.636;2023-05-07T00:32:25;100357.06;;;16.07;95.12
10060;BME280;5069;49.306;8.636;2023-05-07T00:35:30;100365.63;;;16.12;94.14
10060;BME280;5069;49.306;8.636;2023-05-07T00:38:32;100365.97;;;16.06;94.92
10060;BME280;5069;49.306;8.636;2023-05-07T00:41:33;100364.09;;;16.08;95.00
10060;BME280;5069;49.306;8.636;2023-05-07T00:44:35;100353.81;;;16.02;95.54
10060;BME280;5069;49.306;8.636;2023-05-07T00:47:36;100351.41;;;15.98;95.67
10060;BME280;5069;49.306;8.636;2023-05-07T00:50:38;100355.44;;;15.89;96.31
10060;BME280;5069;49.306;8.636;2023-05-07T00:53:40;100361.47;;;15.77;97.13
10060;BME280;5069;49.306;8.636;2023-05-07T00:56:41;100349.03;;;15.78;96.18
10060;BME280;5069;49.306;8.636;2023-05-07T00:59:43;100340.09;;;15.79;95.72
10060;BME280;5069;49.306;8.636;2023-05-07T01:02:44;100347.81;;;15.83;95.68
10060;BME280;5069;49.306;8.636;2023-05-07T01:05:48;100349.50;;;15.84;95.77
10060;BME280;5069;49.306;8.636;2023-05-07T01:08:50;100343.34;;;15.99;92.82
10060;BME280;5069;49.306;8.636;2023-05-07T01:11:55;100345.22;;;15.97;95.57
10060;BME280;5069;49.306;8.636;2023-05-07T01:14:58;100347.38;;;15.75;98.00
10060;BME280;5069;49.306;8.636;2023-05-07T01:18:00;100342.16;;;15.74;98.23
10060;BME280;5069;49.306;8.636;2023-05-07T01:21:09;100338.56;;;15.75;98.45
10060;BME280;5069;49.306;8.636;2023-05-07T01:24:12;100340.69;;;15.68;99.54
10060;BME280;5069;49.306;8.636;2023-05-07T01:27:13;100343.41;;;15.66;98.04
10060;BME280;5069;49.306;8.636;2023-05-07T01:30:16;100341.81;;;15.64;99.61
10060;BME280;5069;49.306;8.636;2023-05-07T01:33:21;100338.47;;;15.60;99.49
10060;BME280;5069;49.306;8.636;2023-05-07T01:36:24;100340.72;;;15.51;99.65
10060;BME280;5069;49.306;8.636;2023-05-07T01:39:29;100335.09;;;15.57;98.37
10060;BME280;5069;49.306;8.636;2023-05-07T01:42:31;100333.06;;;15.62;99.14
10060;BME280;5069;49.306;8.636;2023-05-07T01:45:34;100326.13;;;15.59;98.92
10060;BME280;5069;49.306;8.636;2023-05-07T01:48:35;100333.56;;;15.53;98.87
10060;BME280;5069;49.306;8.636;2023-05-07T01:51:37;100326.38;;;15.55;99.63
10060;BME280;5069;49.306;8.636;2023-05-07T01:54:40;100335.09;;;15.57;98.62
10060;BME280;5069;49.306;8.636;2023-05-07T01:57:41;100330.09;;;15.51;99.21
10060;BME280;5069;49.306;8.636;2023-05-07T02:00:43;100328.56;;;15.47;99.09
10060;BME280;5069;49.306;8.636;2023-05-07T02:03:44;100336.53;;;15.47;99.23
10060;BME280;5069;49.306;8.636;2023-05-07T02:06:53;100333.69;;;15.50;99.09
10060;BME280;5069;49.306;8.636;2023-05-07T02:09:55;100330.97;;;15.51;97.96
10060;BME280;5069;49.306;8.636;2023-05-07T02:12:56;100327.91;;;15.59;97.39
10060;BME280;5069;49.306;8.636;2023-05-07T02:15:58;100333.88;;;15.47;96.34
10060;BME280;5069;49.306;8.636;2023-05-07T02:19:01;100333.84;;;15.31;98.10
10060;BME280;5069;49.306;8.636;2023-05-07T02:22:02;100335.91;;;15.26;98.36
10060;BME280;5069;49.306;8.636;2023-05-07T02:25:04;100331.25;;;15.14;98.96
10060;BME280;5069;49.306;8.636;2023-05-07T02:28:06;100326.25;;;15.08;99.72
10060;BME280;5069;49.306;8.636;2023-05-07T02:31:23;100332.75;;;15.02;99.92
10060;BME280;5069;49.306;8.636;2023-05-07T02:34:24;100343.53;;;14.82;100.00
10060;BME280;5069;49.306;8.636;2023-05-07T02:37:26;100336.19;;;14.87;100.00
10060;BME280;5069;49.306;8.636;2023-05-07T02:40:28;100344.47;;;14.64;100.00
10060;BME280;5069;49.306;8.636;2023-05-07T02:43:29;100354.38;;;14.43;100.00
10060;BME280;5069;49.306;8.636;2023-05-07T02:46:31;100350.03;;;14.23;100.00
10060;BME280;5069;49.306;8.636;2023-05-07T02:49:40;100342.53;;;14.14;100.00
10060;BME280;5069;49.306;8.636;2023-05-07T02:52:42;100348.84;;;14.12;100.00
10060;BME280;5069;49.306;8.636;2023-05-07T02:55:44;100347.69;;;14.17;100.00
10060;BME280;5069;49.306;8.636;2023-05-07T02:58:45;100341.31;;;14.21;100.00
10060;BME280;5069;49.306;8.636;2023-05-07T03:01:48;100344.94;;;14.37;100.00
10060;BME280;5069;49.306;8.636;2023-05-07T03:04:50;100348.22;;;14.42;100.00
10060;BME280;5069;49.306;8.636;2023-05-07T03:07:52;100350.50;;;14.31;100.00
10060;BME280;5069;49.306;8.636;2023-05-07T03:10:54;100346.75;;;14.35;100.00
10060;BME280;5069;49.306;8.636;2023-05-07T03:13:55;100341.78;;;14.29;100.00
10060;BME280;5069;49.306;8.636;2023-05-07T03:16:57;100335.81;;;14.24;100.00
10060;BME280;5069;49.306;8.636;2023-05-07T03:19:58;100332.75;;;14.33;100.00
10060;BME280;5069;49.306;8.636;2023-05-07T03:23:00;100327.28;;;14.36;100.00
10060;BME280;5069;49.306;8.636;2023-05-07T03:26:02;100327.78;;;14.44;100.00
10060;BME280;5069;49.306;8.636;2023-05-07T03:29:04;100320.53;;;14.48;100.00
10060;BME280;5069;49.306;8.636;2023-05-07T03:32:05;100330.28;;;14.47;100.00
10060;BME280;5069;49.306;8.636;2023-05-07T03:35:07;100330.75;;;14.38;100.00
10060;BME280;5069;49.306;8.636;2023-05-07T03:38:09;100317.56;;;14.37;100.00
10060;BME280;5069;49.306;8.636;2023-05-07T03:41:12;100319.47;;;14.33;100.00
10060;BME280;5069;49.306;8.636;2023-05-07T03:44:13;100328.59;;;14.28;100.00
10060;BME280;5069;49.306;8.636;2023-05-07T03:47:15;100327.56;;;14.30;100.00
10060;BME280;5069;49.306;8.636;2023-05-07T03:50:18;100323.53;;;14.23;100.00
10060;BME280;5069;49.306;8.636;2023-05-07T03:53:19;100331.25;;;14.28;100.00
10060;BME280;5069;49.306;8.636;2023-05-07T03:56:21;100334.59;;;14.31;100.00
10060;BME280;5069;49.306;8.636;2023-05-07T03:59:27;100344.63;;;14.43;100.00
10060;BME280;5069;49.306;8.636;2023-05-07T04:02:30;100352.47;;;14.28;100.00
10060;BME280;5069;49.306;8.636;2023-05-07T04:05:32;100352.03;;;14.01;100.00
10060;BME280;5069;49.306;8.636;2023-05-07T04:08:36;100359.94;;;13.84;100.00
10060;BME280;5069;49.306;8.636;2023-05-07T04:11:39;100349.88;;;13.90;100.00
10060;BME280;5069;49.306;8.636;2023-05-07T04:14:45;100357.97;;;13.87;100.00
10060;BME280;5069;49.306;8.636;2023-05-07T04:17:47;100349.50;;;13.98;100.00
10060;BME280;5069;49.306;8.636;2023-05-07T04:20:50;100360.75;;;14.03;100.00
10060;BME280;5069;49.306;8.636;2023-05-07T04:23:52;100354.56;;;14.21;100.00
10060;BME280;5069;49.306;8.636;2023-05-07T04:26:54;100354.03;;;14.32;100.00
10060;BME280;5069;49.306;8.636;2023-05-07T04:29:56;100363.38;;;14.40;100.00
10060;BME280;5069;49.306;8.636;2023-05-07T04:32:59;100364.91;;;14.44;100.00
10060;BME280;5069;49.306;8.636;2023-05-07T04:36:03;100368.25;;;14.48;100.00
10060;BME280;5069;49.306;8.636;2023-05-07T04:39:10;100363.69;;;14.52;100.00
10060;BME280;5069;49.306;8.636;2023-05-07T04:42:16;100363.13;;;14.62;100.00
10060;BME280;5069;49.306;8.636;2023-05-07T04:45:18;100364.31;;;14.74;100.00
10060;BME280;5069;49.306;8.636;2023-05-07T04:48:21;100369.63;;;14.74;100.00
10060;BME280;5069;49.306;8.636;2023-05-07T04:51:24;100373.19;;;14.73;100.00
10060;BME280;5069;49.306;8.636;2023-05-07T04:54:27;100381.31;;;14.87;100.00
10060;BME280;5069;49.306;8.636;2023-05-07T04:57:28;100374.91;;;14.91;100.00
10060;BME280;5069;49.306;8.636;2023-05-07T05:00:30;100381.59;;;14.98;100.00
10060;BME280;5069;49.306;8.636;2023-05-07T05:03:33;100372.56;;;15.02;100.00
10060;BME280;5069;49.306;8.636;2023-05-07T05:06:35;100376.44;;;15.12;100.00
10060;BME280;5069;49.306;8.636;2023-05-07T05:09:38;100381.44;;;15.18;100.00
10060;BME280;5069;49.306;8.636;2023-05-07T05:12:40;100375.50;;;15.30;100.00
10060;BME280;5069;49.306;8.636;2023-05-07T05:15:42;100384.38;;;15.29;100.00
10060;BME280;5069;49.306;8.636;2023-05-07T05:18:44;100382.00;;;15.41;100.00
10060;BME280;5069;49.306;8.636;2023-05-07T05:21:48;100381.22;;;15.39;100.00
10060;BME280;5069;49.306;8.636;2023-05-07T05:24:49;100389.28;;;15.54;100.00
10060;BME280;5069;49.306;8.636;2023-05-07T05:27:51;100377.38;;;15.44;100.00
10060;BME280;5069;49.306;8.636;2023-05-07T05:30:53;100387.63;;;15.52;100.00
10060;BME280;5069;49.306;8.636;2023-05-07T05:33:58;100382.06;;;15.56;100.00
10060;BME280;5069;49.306;8.636;2023-05-07T05:36:59;100387.38;;;15.56;100.00
10060;BME280;5069;49.306;8.636;2023-05-07T05:40:01;100384.13;;;15.67;100.00
10060;BME280;5069;49.306;8.636;2023-05-07T05:43:04;100383.13;;;15.85;95.21
10060;BME280;5069;49.306;8.636;2023-05-07T05:46:06;100381.59;;;15.97;91.65
10060;BME280;5069;49.306;8.636;2023-05-07T05:49:09;100386.03;;;16.12;91.07
10060;BME280;5069;49.306;8.636;2023-05-07T05:52:12;100382.88;;;16.21;89.49
10060;BME280;5069;49.306;8.636;2023-05-07T05:55:15;100385.50;;;16.37;88.39
10060;BME280;5069;49.306;8.636;2023-05-07T05:58:16;100379.47;;;16.49;86.18
10060;BME280;5069;49.306;8.636;2023-05-07T06:01:25;100383.78;;;16.67;84.45
10060;BME280;5069;49.306;8.636;2023-05-07T06:04:28;100386.47;;;16.81;82.48
10060;BME280;5069;49.306;8.636;2023-05-07T06:07:31;100400.09;;;16.91;81.90
10060;BME280;5069;49.306;8.636;2023-05-07T06:10:32;100411.06;;;17.01;80.04
10060;BME280;5069;49.306;8.636;2023-05-07T06:13:34;100394.88;;;17.04;79.41
10060;BME280;5069;49.306;8.636;2023-05-07T06:16:36;100392.22;;;17.04;79.06
10060;BME280;5069;49.306;8.636;2023-05-07T06:19:41;100396.31;;;17.09;79.17
10060;BME280;5069;49.306;8.636;2023-05-07T06:22:43;100398.25;;;17.21;79.07
10060;BME280;5069;49.306;8.636;2023-05-07T06:25:49;100406.19;;;17.37;79.71
10060;BME280;5069;49.306;8.636;2023-05-07T06:28:58;100407.13;;;17.50;79.15
10060;BME280;5069;49.306;8.636;2023-05-07T06:32:10;100408.47;;;17.57;76.24
10060;BME280;5069;49.306;8.636;2023-05-07T06:35:14;100413.31;;;17.51;76.77
10060;BME280;5069;49.306;8.636;2023-05-07T06:38:15;100417.78;;;17.50;76.91
10060;BME280;5069;49.306;8.636;2023-05-07T06:41:18;100411.13;;;17.57;76.67
10060;BME280;5069;49.306;8.636;2023-05-07T06:44:20;100409.22;;;17.59;75.85
10060;BME280;5069;49.306;8.636;2023-05-07T06:47:32;100399.72;;;17.69;75.93
10060;BME280;5069;49.306;8.636;2023-05-07T06:50:34;100402.75;;;17.77;74.97
10060;BME280;5069;49.306;8.636;2023-05-07T06:53:35;100401.03;;;17.91;75.26
10060;BME280;5069;49.306;8.636;2023-05-07T06:56:38;100404.25;;;17.96;74.95
10060;BME280;5069;49.306;8.636;2023-05-07T06:59:39;100406.63;;;18.00;73.55
10060;BME280;5069;49.306;8.636;2023-05-07T07:02:41;100402.16;;;18.01;74.90
10060;BME280;5069;49.306;8.636;2023-05-07T07:05:44;100402.63;;;18.07;74.84
10060;BME280;5069;49.306;8.636;2023-05-07T07:08:47;100398.78;;;18.11;73.12
10060;BME280;5069;49.306;8.636;2023-05-07T07:11:50;100395.25;;;18.25;72.36
10060;BME280;5069;49.306;8.636;2023-05-07T07:14:53;100403.22;;;18.39;71.98
10060;BME280;5069;49.306;8.636;2023-05-07T07:17:56;100392.94;;;18.60;71.74
10060;BME280;5069;49.306;8.636;2023-05-07T07:20:58;100393.00;;;18.73;68.34
10060;BME280;5069;49.306;8.636;2023-05-07T07:24:01;100387.56;;;18.87;68.68
10060;BME280;5069;49.306;8.636;2023-05-07T07:27:02;100393.75;;;18.87;67.20
10060;BME280;5069;49.306;8.636;2023-05-07T07:30:05;100391.41;;;18.83;67.68
10060;BME280;5069;49.306;8.636;2023-05-07T07:33:10;100404.53;;;18.73;69.55
10060;BME280;5069;49.306;8.636;2023-05-07T07:36:12;100403.59;;;18.87;68.96
10060;BME280;5069;49.306;8.636;2023-05-07T07:39:14;100410.28;;;19.19;68.93
10060;BME280;5069;49.306;8.636;2023-05-07T07:42:18;100412.88;;;19.59;67.55
10060;BME280;5069;49.306;8.636;2023-05-07T07:45:20;100404.53;;;20.00;65.95
10060;BME280;5069;49.306;8.636;2023-05-07T07:48:24;100409.06;;;20.23;62.85
10060;BME280;5069;49.306;8.636;2023-05-07T07:51:26;100414.78;;;20.18;63.24
10060;BME280;5069;49.306;8.636;2023-05-07T07:54:28;100421.16;;;20.29;62.73
10060;BME280;5069;49.306;8.636;2023-05-07T07:57:30;100419.56;;;20.39;62.28
10060;BME280;5069;49.306;8.636;2023-05-07T08:00:32;100420.34;;;20.52;61.57
10060;BME280;5069;49.306;8.636;2023-05-07T08:03:34;100414.13;;;20.51;61.22
10060;BME280;5069;49.306;8.636;2023-05-07T08:06:37;100418.88;;;20.48;61.53
10060;BME280;5069;49.306;8.636;2023-05-07T08:09:40;100426.97;;;20.59;59.95
10060;BME280;5069;49.306;8.636;2023-05-07T08:12:43;100425.09;;;20.72;60.20
10060;BME280;5069;49.306;8.636;2023-05-07T08:15:45;100429.13;;;21.13;60.20
10060;BME280;5069;49.306;8.636;2023-05-07T08:18:48;100431.66;;;21.38;59.16
10060;BME280;5069;49.306;8.636;2023-05-07T08:21:50;100434.69;;;21.33;58.86
10060;BME280;5069;49.306;8.636;2023-05-07T08:24:52;100437.25;;;21.24;59.00
10060;BME280;5069;49.306;8.636;2023-05-07T08:27:55;100424.81;;;21.34;58.70
10060;BME280;5069;49.306;8.636;2023-05-07T08:30:57;100419.19;;;21.26;59.13
10060;BME280;5069;49.306;8.636;2023-05-07T08:34:03;100420.16;;;21.25;58.49
10060;BME280;5069;49.306;8.636;2023-05-07T08:37:04;100418.69;;;21.21;58.76
10060;BME280;5069;49.306;8.636;2023-05-07T08:40:07;100427.47;;;21.23;59.12
10060;BME280;5069;49.306;8.636;2023-05-07T08:43:13;100424.31;;;21.29;59.28
10060;BME280;5069;49.306;8.636;2023-05-07T08:46:21;100430.41;;;21.31;58.26
10060;BME280;5069;49.306;8.636;2023-05-07T08:49:28;100435.31;;;21.59;57.93
10060;BME280;5069;49.306;8.636;2023-05-07T08:52:30;100427.16;;;21.61;57.51
10060;BME280;5069;49.306;8.636;2023-05-07T08:55:32;100426.19;;;21.84;56.43
10060;BME280;5069;49.306;8.636;2023-05-07T08:58:35;100413.41;;;21.99;56.52
10060;BME280;5069;49.306;8.636;2023-05-07T09:01:37;100415.53;;;22.27;56.45
10060;BME280;5069;49.306;8.636;2023-05-07T09:04:40;100404.25;;;22.55;54.63
10060;BME280;5069;49.306;8.636;2023-05-07T09:07:42;100405.66;;;22.27;55.49
10060;BME280;5069;49.306;8.636;2023-05-07T09:10:44;100411.63;;;22.42;55.12
10060;BME280;5069;49.306;8.636;2023-05-07T09:13:46;100404.50;;;22.52;54.36
10060;BME280;5069;49.306;8.636;2023-05-07T09:16:47;100404.69;;;22.29;54.47
10060;BME280;5069;49.306;8.636;2023-05-07T09:19:49;100406.88;;;22.35;55.42
10060;BME280;5069;49.306;8.636;2023-05-07T09:22:51;100409.63;;;22.44;55.59
10060;BME280;5069;49.306;8.636;2023-05-07T09:25:59;100405.44;;;22.62;55.26
10060;BME280;5069;49.306;8.636;2023-05-07T09:29:04;100402.78;;;22.51;55.65
10060;BME280;5069;49.306;8.636;2023-05-07T09:32:06;100405.66;;;22.71;55.77
10060;BME280;5069;49.306;8.636;2023-05-07T09:35:14;100406.69;;;22.58;55.18
10060;BME280;5069;49.306;8.636;2023-05-07T09:38:20;100405.78;;;22.37;55.55
10060;BME280;5069;49.306;8.636;2023-05-07T09:41:26;100407.94;;;22.54;55.85
10060;BME280;5069;49.306;8.636;2023-05-07T09:44:35;100410.41;;;22.67;54.89
10060;BME280;5069;49.306;8.636;2023-05-07T09:47:42;100399.47;;;22.91;55.53
10060;BME280;5069;49.306;8.636;2023-05-07T09:50:49;100400.53;;;23.20;55.15
10060;BME280;5069;49.306;8.636;2023-05-07T09:53:57;100392.41;;;23.31;53.97
10060;BME280;5069;49.306;8.636;2023-05-07T09:57:02;100391.09;;;23.26;53.12
10060;BME280;5069;49.306;8.636;2023-05-07T10:00:05;100396.22;;;23.08;54.14
10060;BME280;5069;49.306;8.636;2023-05-07T10:03:21;100394.31;;;23.40;54.61
10060;BME280;5069;49.306;8.636;2023-05-07T10:06:31;100384.69;;;23.17;53.46
10060;BME280;5069;49.306;8.636;2023-05-07T10:09:34;100386.47;;;23.58;54.60
10060;BME280;5069;49.306;8.636;2023-05-07T10:12:41;100373.47;;;24.03;54.01
10060;BME280;5069;49.306;8.636;2023-05-07T10:15:50;100369.31;;;24.29;52.37
10060;BME280;5069;49.306;8.636;2023-05-07T10:18:54;100369.22;;;24.10;52.17
10060;BME280;5069;49.306;8.636;2023-05-07T10:22:03;100369.03;;;23.93;52.19
10060;BME280;5069;49.306;8.636;2023-05-07T10:25:16;100363.81;;;23.91;52.22
10060;BME280;5069;49.306;8.636;2023-05-07T10:28:19;100356.19;;;24.06;52.74
10060;BME280;5069;49.306;8.636;2023-05-07T10:34:38;100361.31;;;24.09;52.45
10060;BME280;5069;49.306;8.636;2023-05-07T10:37:41;100359.19;;;24.12;52.12
10060;BME280;5069;49.306;8.636;2023-05-07T10:40:43;100364.91;;;24.38;51.75
10060;BME280;5069;49.306;8.636;2023-05-07T10:43:50;100369.31;;;24.68;50.67
10060;BME280;5069;49.306;8.636;2023-05-07T10:47:11;100367.63;;;24.96;48.91
10060;BME280;5069;49.306;8.636;2023-05-07T10:56:38;100352.72;;;25.11;49.98
10060;BME280;5069;49.306;8.636;2023-05-07T10:59:45;100345.16;;;25.15;49.85
10060;BME280;5069;49.306;8.636;2023-05-07T11:06:14;100347.88;;;24.95;47.87
10060;BME280;5069;49.306;8.636;2023-05-07T11:09:59;100342.34;;;24.78;49.00
10060;BME280;5069;49.306;8.636;2023-05-07T11:13:42;100333.53;;;25.14;48.84
10060;BME280;5069;49.306;8.636;2023-05-07T11:17:02;100341.13;;;25.38;48.06
10060;BME280;5069;49.306;8.636;2023-05-07T11:20:05;100336.25;;;25.51;47.97
10060;BME280;5069;49.306;8.636;2023-05-07T11:27:02;100321.19;;;25.85;44.88
10060;BME280;5069;49.306;8.636;2023-05-07T11:30:05;100328.19;;;25.78;44.60
10060;BME280;5069;49.306;8.636;2023-05-07T11:33:08;100323.28;;;25.91;43.59
10060;BME280;5069;49.306;8.636;2023-05-07T11:36:11;100325.78;;;26.03;44.45
10060;BME280;5069;49.306;8.636;2023-05-07T11:39:32;100320.22;;;26.22;43.11
10060;BME280;5069;49.306;8.636;2023-05-07T11:42:39;100328.16;;;26.06;42.73
10060;BME280;5069;49.306;8.636;2023-05-07T11:45:41;100322.63;;;26.07;43.13
10060;BME280;5069;49.306;8.636;2023-05-07T11:48:43;100317.47;;;26.14;43.88
10060;BME280;5069;49.306;8.636;2023-05-07T11:51:45;100317.94;;;26.27;42.19
10060;BME280;5069;49.306;8.636;2023-05-07T11:54:51;100314.03;;;26.12;42.69
10060;BME280;5069;49.306;8.636;2023-05-07T11:57:53;100321.22;;;26.21;42.61
10060;BME280;5069;49.306;8.636;2023-05-07T12:00:55;100311.16;;;26.23;41.88
10060;BME280;5069;49.306;8.636;2023-05-07T12:03:56;100304.00;;;26.22;43.79
10060;BME280;5069;49.306;8.636;2023-05-07T12:06:58;100313.34;;;26.37;43.58
10060;BME280;5069;49.306;8.636;2023-05-07T12:09:59;100302.56;;;26.45;43.86
10060;BME280;5069;49.306;8.636;2023-05-07T12:13:23;100309.53;;;26.65;43.10
10060;BME280;5069;49.306;8.636;2023-05-07T12:16:26;100317.47;;;26.49;43.23
10060;BME280;5069;49.306;8.636;2023-05-07T12:19:28;100307.25;;;26.79;42.56
10060;BME280;5069;49.306;8.636;2023-05-07T12:22:30;100310.78;;;26.36;43.26
10060;BME280;5069;49.306;8.636;2023-05-07T12:25:34;100306.59;;;26.41;43.05
10060;BME280;5069;49.306;8.636;2023-05-07T12:28:37;100301.09;;;26.33;42.89
10060;BME280;5069;49.306;8.636;2023-05-07T12:31:43;100294.31;;;26.64;42.59
10060;BME280;5069;49.306;8.636;2023-05-07T12:34:45;100295.78;;;26.85;43.10
10060;BME280;5069;49.306;8.636;2023-05-07T12:37:55;100296.19;;;26.90;42.78
10060;BME280;5069;49.306;8.636;2023-05-07T12:40:57;100297.22;;;26.71;42.03
10060;BME280;5069;49.306;8.636;2023-05-07T12:43:58;100298.00;;;26.63;42.98
10060;BME280;5069;49.306;8.636;2023-05-07T12:47:03;100290.22;;;27.04;41.61
10060;BME280;5069;49.306;8.636;2023-05-07T12:50:06;100291.66;;;26.72;42.44
10060;BME280;5069;49.306;8.636;2023-05-07T12:53:10;100287.44;;;26.52;42.33
10060;BME280;5069;49.306;8.636;2023-05-07T12:56:15;100290.91;;;26.27;43.17
10060;BME280;5069;49.306;8.636;2023-05-07T12:59:17;100291.56;;;25.93;43.08
10060;BME280;5069;49.306;8.636;2023-05-07T13:02:18;100280.03;;;25.74;44.01
10060;BME280;5069;49.306;8.636;2023-05-07T13:05:20;100277.28;;;25.83;43.91
10060;BME280;5069;49.306;8.636;2023-05-07T13:08:34;100284.84;;;26.15;43.91
10060;BME280;5069;49.306;8.636;2023-05-07T13:11:37;100279.91;;;26.11;43.68
10060;BME280;5069;49.306;8.636;2023-05-07T13:14:40;100272.38;;;26.32;43.19
10060;BME280;5069;49.306;8.636;2023-05-07T13:17:41;100284.13;;;26.23;43.87
10060;BME280;5069;49.306;8.636;2023-05-07T13:20:43;100275.25;;;26.30;43.07
10060;BME280;5069;49.306;8.636;2023-05-07T13:23:44;100271.31;;;26.25;43.24
10060;BME280;5069;49.306;8.636;2023-05-07T13:26:46;100265.34;;;26.21;43.41
10060;BME280;5069;49.306;8.636;2023-05-07T13:29:47;100265.09;;;26.15;42.54
10060;BME280;5069;49.306;8.636;2023-05-07T13:32:49;100253.84;;;26.02;42.73
10060;BME280;5069;49.306;8.636;2023-05-07T13:35:51;100252.03;;;25.92;43.44
10060;BME280;5069;49.306;8.636;2023-05-07T13:38:52;100250.91;;;25.95;43.58
10060;BME280;5069;49.306;8.636;2023-05-07T13:41:54;100247.81;;;25.90;43.47
10060;BME280;5069;49.306;8.636;2023-05-07T13:44:55;100244.53;;;25.69;44.26
10060;BME280;5069;49.306;8.636;2023-05-07T13:47:57;100237.19;;;25.61;43.99
10060;BME280;5069;49.306;8.636;2023-05-07T13:50:59;100235.94;;;25.56;44.05
10060;BME280;5069;49.306;8.636;2023-05-07T13:54:00;100259.56;;;25.44;44.22
10060;BME280;5069;49.306;8.636;2023-05-07T13:57:02;100275.66;;;25.36;45.46
10060;BME280;5069;49.306;8.636;2023-05-07T14:00:04;100271.88;;;25.19;45.08
10060;BME280;5069;49.306;8.636;2023-05-07T14:03:15;100291.81;;;25.08;45.93
10060;BME280;5069;49.306;8.636;2023-05-07T14:06:17;100316.13;;;24.89;46.02
10060;BME280;5069;49.306;8.636;2023-05-07T14:09:18;100360.28;;;24.10;49.28
10060;BME280;5069;49.306;8.636;2023-05-07T14:12:19;100370.19;;;22.13;57.46
10060;BME280;5069;49.306;8.636;2023-05-07T14:15:21;100371.19;;;20.53;72.80
10060;BME280;5069;49.306;8.636;2023-05-07T14:18:23;100394.88;;;19.61;89.94
10060;BME280;5069;49.306;8.636;2023-05-07T14:21:25;100406.72;;;19.06;100.00
10060;BME280;5069;49.306;8.636;2023-05-07T14:24:27;100413.44;;;18.60;100.00
10060;BME280;5069;49.306;8.636;2023-05-07T14:27:39;100414.34;;;18.05;100.00
10060;BME280;5069;49.306;8.636;2023-05-07T14:30:40;100420.28;;;17.67;100.00
10060;BME280;5069;49.306;8.636;2023-05-07T14:33:41;100421.75;;;17.43;100.00
10060;BME280;5069;49.306;8.636;2023-05-07T14:36:43;100425.94;;;17.33;100.00
10060;BME280;5069;49.306;8.636;2023-05-07T14:39:45;100437.91;;;17.12;100.00
10060;BME280;5069;49.306;8.636;2023-05-07T14:42:50;100440.84;;;17.07;100.00
10060;BME280;5069;49.306;8.636;2023-05-07T14:45:51;100442.34;;;16.97;100.00
10060;BME280;5069;49.306;8.636;2023-05-07T14:48:53;100444.75;;;16.86;100.00
10060;BME280;5069;49.306;8.636;2023-05-07T14:51:57;100458.25;;;16.83;100.00
10060;BME280;5069;49.306;8.636;2023-05-07T14:55:00;100458.53;;;16.78;100.00
10060;BME280;5069;49.306;8.636;2023-05-07T14:58:01;100475.66;;;16.74;100.00
10060;BME280;5069;49.306;8.636;2023-05-07T15:01:03;100496.56;;;16.80;100.00
10060;BME280;5069;49.306;8.636;2023-05-07T15:04:04;100510.84;;;16.79;100.00
10060;BME280;5069;49.306;8.636;2023-05-07T15:07:06;100513.75;;;16.75;100.00
10060;BME280;5069;49.306;8.636;2023-05-07T15:10:08;100525.94;;;16.63;100.00
10060;BME280;5069;49.306;8.636;2023-05-07T15:13:10;100543.94;;;16.58;100.00
10060;BME280;5069;49.306;8.636;2023-05-07T15:16:16;100551.63;;;16.80;100.00
10060;BME280;5069;49.306;8.636;2023-05-07T15:19:18;100556.50;;;16.87;100.00
10060;BME280;5069;49.306;8.636;2023-05-07T15:22:19;100557.97;;;16.77;100.00
10060;BME280;5069;49.306;8.636;2023-05-07T15:25:23;100561.50;;;16.62;100.00
10060;BME280;5069;49.306;8.636;2023-05-07T15:28:24;100560.69;;;16.44;100.00
10060;BME280;5069;49.306;8.636;2023-05-07T15:31:29;100571.94;;;16.34;100.00
10060;BME280;5069;49.306;8.636;2023-05-07T15:34:31;100576.19;;;16.36;100.00
10060;BME280;5069;49.306;8.636;2023-05-07T15:37:32;100571.59;;;16.40;100.00
10060;BME280;5069;49.306;8.636;2023-05-07T15:40:35;100562.56;;;16.42;100.00
10060;BME280;5069;49.306;8.636;2023-05-07T15:43:47;100559.56;;;16.48;100.00
10060;BME280;5069;49.306;8.636;2023-05-07T15:46:49;100555.63;;;16.40;100.00
10060;BME280;5069;49.306;8.636;2023-05-07T15:49:50;100552.53;;;16.47;100.00
10060;BME280;5069;49.306;8.636;2023-05-07T15:52:52;100552.97;;;16.56;100.00
10060;BME280;5069;49.306;8.636;2023-05-07T15:55:54;100554.09;;;16.51;100.00
10060;BME280;5069;49.306;8.636;2023-05-07T15:58:55;100556.97;;;16.47;100.00
10060;BME280;5069;49.306;8.636;2023-05-07T16:01:57;100552.09;;;16.55;100.00
10060;BME280;5069;49.306;8.636;2023-05-07T16:04:59;100546.19;;;16.50;100.00
10060;BME280;5069;49.306;8.636;2023-05-07T16:08:01;100541.38;;;16.57;100.00
10060;BME280;5069;49.306;8.636;2023-05-07T16:11:03;100549.13;;;16.61;100.00
10060;BME280;5069;49.306;8.636;2023-05-07T16:14:05;100548.41;;;16.58;100.00
10060;BME280;5069;49.306;8.636;2023-05-07T16:17:07;100554.47;;;16.61;100.00
10060;BME280;5069;49.306;8.636;2023-05-07T16:20:09;100548.59;;;16.54;100.00
10060;BME280;5069;49.306;8.636;2023-05-07T16:23:14;100542.75;;;16.48;100.00
10060;BME280;5069;49.306;8.636;2023-05-07T16:26:17;100551.13;;;16.40;100.00